sensor_id;sensor_type;location;lat;lon;timestamp;P1;durP1;ratioP1;P2;durP2;ratioP2
21721;SDS011;11023;48.274;7.794;2022-11-25T00:01:10;8.00;;;4.05;;
21721;SDS011;11023;48.274;7.794;2022-11-25T00:03:37;10.98;;;3.72;;
21721;SDS011;11023;48.274;7.794;2022-11-25T00:06:36;6.68;;;3.20;;
21721;SDS011;11023;48.274;7.794;2022-11-25T00:09:00;6.70;;;2.88;;
21721;SDS011;11023;48.274;7.794;2022-11-25T00:11:28;8.02;;;3.15;;
21721;SDS011;11023;48.274;7.794;2022-11-25T00:13:54;10.57;;;2.88;;
21721;SDS011;11023;48.274;7.794;2022-11-25T00:16:21;10.10;;;3.67;;
21721;SDS011;11023;48.274;7.794;2022-11-25T00:18:49;9.68;;;4.40;;
21721;SDS011;11023;48.274;7.794;2022-11-25T00:21:17;8.52;;;4.35;;
21721;SDS011;11023;48.274;7.794;2022-11-25T00:23:48;10.95;;;4.60;;
21721;SDS011;11023;48.274;7.794;2022-11-25T00:26:18;12.85;;;4.50;;
21721;SDS011;11023;48.274;7.794;2022-11-25T00:28:45;9.95;;;4.25;;
21721;SDS011;11023;48.274;7.794;2022-11-25T00:31:13;12.07;;;5.10;;
21721;SDS011;11023;48.274;7.794;2022-11-25T00:33:41;15.20;;;5.43;;
21721;SDS011;11023;48.274;7.794;2022-11-25T00:36:29;9.98;;;4.47;;
21721;SDS011;11023;48.274;7.794;2022-11-25T00:39:11;8.30;;;3.60;;
21721;SDS011;11023;48.274;7.794;2022-11-25T00:41:40;11.18;;;3.65;;
21721;SDS011;11023;48.274;7.794;2022-11-25T00:44:26;12.75;;;3.92;;
21721;SDS011;11023;48.274;7.794;2022-11-25T00:47:05;14.60;;;5.47;;
21721;SDS011;11023;48.274;7.794;2022-11-25T00:49:50;10.45;;;5.10;;
21721;SDS011;11023;48.274;7.794;2022-11-25T00:52:22;12.20;;;5.10;;
21721;SDS011;11023;48.274;7.794;2022-11-25T00:54:49;11.23;;;4.53;;
21721;SDS011;11023;48.274;7.794;2022-11-25T00:57:17;13.02;;;5.03;;
21721;SDS011;11023;48.274;7.794;2022-11-25T00:59:45;12.40;;;5.03;;
21721;SDS011;11023;48.274;7.794;2022-11-25T01:02:15;11.63;;;4.63;;
21721;SDS011;11023;48.274;7.794;2022-11-25T01:04:41;13.57;;;5.15;;
21721;SDS011;11023;48.274;7.794;2022-11-25T01:07:07;11.10;;;5.30;;
21721;SDS011;11023;48.274;7.794;2022-11-25T01:09:34;11.05;;;5.20;;
21721;SDS011;11023;48.274;7.794;2022-11-25T01:12:00;7.55;;;4.30;;
21721;SDS011;11023;48.274;7.794;2022-11-25T01:14:25;11.80;;;4.78;;
21721;SDS011;11023;48.274;7.794;2022-11-25T01:16:53;7.68;;;4.20;;
21721;SDS011;11023;48.274;7.794;2022-11-25T01:19:19;10.15;;;4.10;;
21721;SDS011;11023;48.274;7.794;2022-11-25T01:21:45;6.13;;;3.05;;
21721;SDS011;11023;48.274;7.794;2022-11-25T01:24:11;8.13;;;3.42;;
21721;SDS011;11023;48.274;7.794;2022-11-25T01:26:39;9.15;;;3.40;;
21721;SDS011;11023;48.274;7.794;2022-11-25T01:29:05;6.60;;;3.28;;
21721;SDS011;11023;48.274;7.794;2022-11-25T01:31:36;9.38;;;3.30;;
21721;SDS011;11023;48.274;7.794;2022-11-25T01:34:07;7.50;;;2.88;;
21721;SDS011;11023;48.274;7.794;2022-11-25T01:36:38;6.32;;;2.55;;
21721;SDS011;11023;48.274;7.794;2022-11-25T01:39:03;5.97;;;2.40;;
21721;SDS011;11023;48.274;7.794;2022-11-25T01:41:30;5.75;;;2.42;;
21721;SDS011;11023;48.274;7.794;2022-11-25T01:44:11;6.22;;;2.30;;
21721;SDS011;11023;48.274;7.794;2022-11-25T01:49:15;3.47;;;1.80;;
21721;SDS011;11023;48.274;7.794;2022-11-25T01:51:56;6.93;;;2.00;;
21721;SDS011;11023;48.274;7.794;2022-11-25T01:54:33;10.02;;;2.70;;
21721;SDS011;11023;48.274;7.794;2022-11-25T01:57:03;9.90;;;2.03;;
21721;SDS011;11023;48.274;7.794;2022-11-25T01:59:38;9.00;;;2.20;;
21721;SDS011;11023;48.274;7.794;2022-11-25T02:02:08;4.97;;;1.98;;
21721;SDS011;11023;48.274;7.794;2022-11-25T02:04:35;7.53;;;2.38;;
21721;SDS011;11023;48.274;7.794;2022-11-25T02:07:08;8.07;;;2.58;;
21721;SDS011;11023;48.274;7.794;2022-11-25T02:09:40;5.15;;;2.15;;
21721;SDS011;11023;48.274;7.794;2022-11-25T02:12:09;6.60;;;2.42;;
21721;SDS011;11023;48.274;7.794;2022-11-25T02:14:36;6.65;;;2.25;;
21721;SDS011;11023;48.274;7.794;2022-11-25T02:17:03;6.90;;;2.58;;
21721;SDS011;11023;48.274;7.794;2022-11-25T02:22:15;11.35;;;2.58;;
21721;SDS011;11023;48.274;7.794;2022-11-25T02:24:49;5.00;;;2.30;;
21721;SDS011;11023;48.274;7.794;2022-11-25T02:27:20;7.68;;;2.75;;
21721;SDS011;11023;48.274;7.794;2022-11-25T02:29:46;8.38;;;2.50;;
21721;SDS011;11023;48.274;7.794;2022-11-25T02:32:13;5.38;;;2.60;;
21721;SDS011;11023;48.274;7.794;2022-11-25T02:34:46;6.28;;;2.45;;
21721;SDS011;11023;48.274;7.794;2022-11-25T02:37:13;7.13;;;2.30;;
21721;SDS011;11023;48.274;7.794;2022-11-25T02:39:41;7.20;;;2.22;;
21721;SDS011;11023;48.274;7.794;2022-11-25T02:42:07;6.75;;;2.53;;
21721;SDS011;11023;48.274;7.794;2022-11-25T02:44:34;4.80;;;1.85;;
21721;SDS011;11023;48.274;7.794;2022-11-25T02:47:00;5.97;;;2.38;;
21721;SDS011;11023;48.274;7.794;2022-11-25T02:49:25;7.30;;;1.90;;
21721;SDS011;11023;48.274;7.794;2022-11-25T02:51:51;6.57;;;1.67;;
21721;SDS011;11023;48.274;7.794;2022-11-25T02:54:17;6.38;;;2.10;;
21721;SDS011;11023;48.274;7.794;2022-11-25T02:56:42;5.70;;;1.92;;
21721;SDS011;11023;48.274;7.794;2022-11-25T02:59:09;6.88;;;2.65;;
21721;SDS011;11023;48.274;7.794;2022-11-25T03:01:35;8.27;;;3.83;;
21721;SDS011;11023;48.274;7.794;2022-11-25T03:04:02;10.25;;;4.20;;
21721;SDS011;11023;48.274;7.794;2022-11-25T03:06:28;11.32;;;4.28;;
21721;SDS011;11023;48.274;7.794;2022-11-25T03:08:54;11.43;;;4.20;;
21721;SDS011;11023;48.274;7.794;2022-11-25T03:11:20;9.13;;;4.15;;
21721;SDS011;11023;48.274;7.794;2022-11-25T03:14:06;10.43;;;3.75;;
21721;SDS011;11023;48.274;7.794;2022-11-25T03:16:32;8.40;;;3.90;;
21721;SDS011;11023;48.274;7.794;2022-11-25T03:18:58;10.77;;;3.40;;
21721;SDS011;11023;48.274;7.794;2022-11-25T03:21:23;7.13;;;4.10;;
21721;SDS011;11023;48.274;7.794;2022-11-25T03:23:49;8.70;;;3.80;;
21721;SDS011;11023;48.274;7.794;2022-11-25T03:26:15;12.38;;;4.40;;
21721;SDS011;11023;48.274;7.794;2022-11-25T03:28:40;10.68;;;4.60;;
21721;SDS011;11023;48.274;7.794;2022-11-25T03:31:09;10.07;;;4.05;;
21721;SDS011;11023;48.274;7.794;2022-11-25T03:33:35;7.47;;;3.75;;
21721;SDS011;11023;48.274;7.794;2022-11-25T03:36:01;8.48;;;3.80;;
21721;SDS011;11023;48.274;7.794;2022-11-25T03:38:26;11.00;;;4.20;;
21721;SDS011;11023;48.274;7.794;2022-11-25T03:40:52;10.00;;;4.25;;
21721;SDS011;11023;48.274;7.794;2022-11-25T03:43:18;7.97;;;3.72;;
21721;SDS011;11023;48.274;7.794;2022-11-25T03:45:46;6.57;;;3.80;;
21721;SDS011;11023;48.274;7.794;2022-11-25T03:48:14;12.57;;;3.85;;
21721;SDS011;11023;48.274;7.794;2022-11-25T03:50:39;6.50;;;3.10;;
21721;SDS011;11023;48.274;7.794;2022-11-25T03:53:06;9.32;;;3.00;;
21721;SDS011;11023;48.274;7.794;2022-11-25T03:55:33;6.35;;;2.53;;
21721;SDS011;11023;48.274;7.794;2022-11-25T03:57:58;9.98;;;3.35;;
21721;SDS011;11023;48.274;7.794;2022-11-25T04:00:24;8.20;;;3.35;;
21721;SDS011;11023;48.274;7.794;2022-11-25T04:02:50;7.30;;;4.05;;
21721;SDS011;11023;48.274;7.794;2022-11-25T04:05:15;8.07;;;3.78;;
21721;SDS011;11023;48.274;7.794;2022-11-25T04:07:41;6.80;;;3.13;;
21721;SDS011;11023;48.274;7.794;2022-11-25T04:10:07;7.25;;;2.80;;
21721;SDS011;11023;48.274;7.794;2022-11-25T04:12:33;4.78;;;2.78;;
21721;SDS011;11023;48.274;7.794;2022-11-25T04:15:11;7.15;;;3.25;;
21721;SDS011;11023;48.274;7.794;2022-11-25T04:17:38;4.82;;;3.03;;
21721;SDS011;11023;48.274;7.794;2022-11-25T04:20:04;7.47;;;2.97;;
21721;SDS011;11023;48.274;7.794;2022-11-25T04:22:30;5.45;;;2.75;;
21721;SDS011;11023;48.274;7.794;2022-11-25T04:24:56;7.93;;;2.92;;
21721;SDS011;11023;48.274;7.794;2022-11-25T04:27:22;7.70;;;3.25;;
21721;SDS011;11023;48.274;7.794;2022-11-25T04:29:48;7.93;;;2.92;;
21721;SDS011;11023;48.274;7.794;2022-11-25T04:32:14;8.15;;;3.70;;
21721;SDS011;11023;48.274;7.794;2022-11-25T04:34:40;6.15;;;3.30;;
21721;SDS011;11023;48.274;7.794;2022-11-25T04:37:05;8.68;;;3.58;;
21721;SDS011;11023;48.274;7.794;2022-11-25T04:39:31;10.55;;;3.10;;
21721;SDS011;11023;48.274;7.794;2022-11-25T04:41:57;8.13;;;3.05;;
21721;SDS011;11023;48.274;7.794;2022-11-25T04:44:41;8.77;;;3.55;;
21721;SDS011;11023;48.274;7.794;2022-11-25T04:47:07;7.80;;;3.38;;
21721;SDS011;11023;48.274;7.794;2022-11-25T04:49:32;6.68;;;2.90;;
21721;SDS011;11023;48.274;7.794;2022-11-25T04:51:58;6.20;;;2.63;;
21721;SDS011;11023;48.274;7.794;2022-11-25T04:54:24;8.50;;;2.88;;
21721;SDS011;11023;48.274;7.794;2022-11-25T04:56:50;5.85;;;2.85;;
21721;SDS011;11023;48.274;7.794;2022-11-25T04:59:16;8.70;;;2.97;;
21721;SDS011;11023;48.274;7.794;2022-11-25T05:04:49;5.68;;;2.80;;
21721;SDS011;11023;48.274;7.794;2022-11-25T05:07:17;4.75;;;2.30;;
21721;SDS011;11023;48.274;7.794;2022-11-25T05:09:43;6.50;;;2.58;;
21721;SDS011;11023;48.274;7.794;2022-11-25T05:12:11;2.83;;;1.85;;
21721;SDS011;11023;48.274;7.794;2022-11-25T05:14:38;4.85;;;1.80;;
21721;SDS011;11023;48.274;7.794;2022-11-25T05:17:04;5.40;;;1.95;;
21721;SDS011;11023;48.274;7.794;2022-11-25T05:19:32;8.82;;;1.83;;
21721;SDS011;11023;48.274;7.794;2022-11-25T05:22:00;5.18;;;1.88;;
21721;SDS011;11023;48.274;7.794;2022-11-25T05:24:26;4.57;;;2.17;;
21721;SDS011;11023;48.274;7.794;2022-11-25T05:26:52;4.60;;;1.95;;
21721;SDS011;11023;48.274;7.794;2022-11-25T05:29:17;4.82;;;2.08;;
21721;SDS011;11023;48.274;7.794;2022-11-25T05:31:43;6.13;;;2.10;;
21721;SDS011;11023;48.274;7.794;2022-11-25T05:34:10;4.57;;;2.20;;
21721;SDS011;11023;48.274;7.794;2022-11-25T05:36:39;7.10;;;2.10;;
21721;SDS011;11023;48.274;7.794;2022-11-25T05:39:11;6.43;;;2.65;;
21721;SDS011;11023;48.274;7.794;2022-11-25T05:41:39;7.53;;;2.60;;
21721;SDS011;11023;48.274;7.794;2022-11-25T05:44:05;6.20;;;3.25;;
21721;SDS011;11023;48.274;7.794;2022-11-25T05:51:58;5.35;;;2.78;;
21721;SDS011;11023;48.274;7.794;2022-11-25T05:54:25;4.45;;;2.42;;
21721;SDS011;11023;48.274;7.794;2022-11-25T05:56:54;8.45;;;3.08;;
21721;SDS011;11023;48.274;7.794;2022-11-25T05:59:42;9.73;;;3.55;;
21721;SDS011;11023;48.274;7.794;2022-11-25T06:02:17;8.93;;;4.03;;
21721;SDS011;11023;48.274;7.794;2022-11-25T06:08:03;6.38;;;3.30;;
21721;SDS011;11023;48.274;7.794;2022-11-25T06:13:54;9.18;;;3.95;;
21721;SDS011;11023;48.274;7.794;2022-11-25T06:20:34;7.60;;;3.00;;
21721;SDS011;11023;48.274;7.794;2022-11-25T06:23:32;6.82;;;3.05;;
21721;SDS011;11023;48.274;7.794;2022-11-25T06:29:09;7.75;;;3.58;;
21721;SDS011;11023;48.274;7.794;2022-11-25T06:38:34;7.78;;;3.80;;
21721;SDS011;11023;48.274;7.794;2022-11-25T06:41:09;8.73;;;3.45;;
21721;SDS011;11023;48.274;7.794;2022-11-25T06:43:43;11.38;;;4.10;;
21721;SDS011;11023;48.274;7.794;2022-11-25T06:46:20;9.45;;;4.15;;
21721;SDS011;11023;48.274;7.794;2022-11-25T06:49:24;8.93;;;3.55;;
21721;SDS011;11023;48.274;7.794;2022-11-25T06:52:05;8.48;;;3.72;;
21721;SDS011;11023;48.274;7.794;2022-11-25T06:54:47;9.80;;;3.88;;
21721;SDS011;11023;48.274;7.794;2022-11-25T06:57:37;10.68;;;4.10;;
21721;SDS011;11023;48.274;7.794;2022-11-25T07:00:25;7.95;;;3.50;;
21721;SDS011;11023;48.274;7.794;2022-11-25T07:06:27;8.77;;;3.90;;
21721;SDS011;11023;48.274;7.794;2022-11-25T07:09:15;10.88;;;3.80;;
21721;SDS011;11023;48.274;7.794;2022-11-25T07:11:46;7.97;;;3.72;;
21721;SDS011;11023;48.274;7.794;2022-11-25T07:17:29;9.25;;;3.95;;
21721;SDS011;11023;48.274;7.794;2022-11-25T07:19:56;10.73;;;3.50;;
21721;SDS011;11023;48.274;7.794;2022-11-25T07:22:21;8.63;;;3.65;;
21721;SDS011;11023;48.274;7.794;2022-11-25T07:24:47;9.23;;;3.65;;
21721;SDS011;11023;48.274;7.794;2022-11-25T07:27:13;6.85;;;3.50;;
21721;SDS011;11023;48.274;7.794;2022-11-25T07:29:38;9.13;;;3.75;;
21721;SDS011;11023;48.274;7.794;2022-11-25T07:32:04;7.28;;;3.40;;
21721;SDS011;11023;48.274;7.794;2022-11-25T07:34:30;7.82;;;3.03;;
21721;SDS011;11023;48.274;7.794;2022-11-25T07:36:55;10.90;;;3.70;;
21721;SDS011;11023;48.274;7.794;2022-11-25T07:39:21;6.45;;;3.08;;
21721;SDS011;11023;48.274;7.794;2022-11-25T07:41:48;8.80;;;3.00;;
21721;SDS011;11023;48.274;7.794;2022-11-25T07:44:18;8.13;;;3.40;;
21721;SDS011;11023;48.274;7.794;2022-11-25T07:46:45;7.70;;;3.45;;
21721;SDS011;11023;48.274;7.794;2022-11-25T07:49:22;6.93;;;3.17;;
21721;SDS011;11023;48.274;7.794;2022-11-25T07:51:54;8.15;;;3.10;;
21721;SDS011;11023;48.274;7.794;2022-11-25T07:54:23;5.85;;;3.30;;
21721;SDS011;11023;48.274;7.794;2022-11-25T07:56:49;11.25;;;3.80;;
21721;SDS011;11023;48.274;7.794;2022-11-25T07:59:16;9.68;;;4.05;;
21721;SDS011;11023;48.274;7.794;2022-11-25T08:01:44;9.48;;;3.63;;
21721;SDS011;11023;48.274;7.794;2022-11-25T08:04:10;10.65;;;3.88;;
21721;SDS011;11023;48.274;7.794;2022-11-25T08:06:38;7.75;;;3.50;;
21721;SDS011;11023;48.274;7.794;2022-11-25T08:09:07;9.00;;;4.20;;
21721;SDS011;11023;48.274;7.794;2022-11-25T08:11:33;12.52;;;5.25;;
21721;SDS011;11023;48.274;7.794;2022-11-25T08:13:59;10.32;;;5.55;;
21721;SDS011;11023;48.274;7.794;2022-11-25T08:16:27;10.75;;;4.90;;
21721;SDS011;11023;48.274;7.794;2022-11-25T08:18:55;8.73;;;4.60;;
21721;SDS011;11023;48.274;7.794;2022-11-25T08:21:22;10.77;;;4.93;;
21721;SDS011;11023;48.274;7.794;2022-11-25T08:23:48;9.13;;;3.88;;
21721;SDS011;11023;48.274;7.794;2022-11-25T08:26:26;7.40;;;3.40;;
21721;SDS011;11023;48.274;7.794;2022-11-25T08:28:58;12.25;;;2.63;;
21721;SDS011;11023;48.274;7.794;2022-11-25T08:31:25;6.47;;;1.90;;
21721;SDS011;11023;48.274;7.794;2022-11-25T08:33:53;11.55;;;2.20;;
21721;SDS011;11023;48.274;7.794;2022-11-25T08:36:20;5.40;;;1.87;;
21721;SDS011;11023;48.274;7.794;2022-11-25T08:38:47;5.78;;;2.10;;
21721;SDS011;11023;48.274;7.794;2022-11-25T08:41:16;6.78;;;2.03;;
21721;SDS011;11023;48.274;7.794;2022-11-25T08:43:44;9.13;;;2.25;;
21721;SDS011;11023;48.274;7.794;2022-11-25T08:46:10;5.47;;;2.20;;
21721;SDS011;11023;48.274;7.794;2022-11-25T08:48:38;9.07;;;2.35;;
21721;SDS011;11023;48.274;7.794;2022-11-25T08:51:08;7.65;;;2.13;;
21721;SDS011;11023;48.274;7.794;2022-11-25T08:53:37;5.70;;;1.98;;
21721;SDS011;11023;48.274;7.794;2022-11-25T08:56:04;7.30;;;1.90;;
21721;SDS011;11023;48.274;7.794;2022-11-25T08:58:31;6.70;;;2.20;;
21721;SDS011;11023;48.274;7.794;2022-11-25T09:00:57;6.65;;;1.80;;
21721;SDS011;11023;48.274;7.794;2022-11-25T09:03:22;5.47;;;1.95;;
21721;SDS011;11023;48.274;7.794;2022-11-25T09:05:48;5.25;;;2.00;;
21721;SDS011;11023;48.274;7.794;2022-11-25T09:08:14;6.68;;;2.03;;
21721;SDS011;11023;48.274;7.794;2022-11-25T09:10:40;6.78;;;2.25;;
21721;SDS011;11023;48.274;7.794;2022-11-25T09:13:06;11.13;;;2.50;;
21721;SDS011;11023;48.274;7.794;2022-11-25T09:15:34;8.77;;;2.45;;
21721;SDS011;11023;48.274;7.794;2022-11-25T09:18:04;7.22;;;2.33;;
21721;SDS011;11023;48.274;7.794;2022-11-25T09:20:38;8.13;;;2.58;;
21721;SDS011;11023;48.274;7.794;2022-11-25T09:23:05;9.82;;;2.50;;
21721;SDS011;11023;48.274;7.794;2022-11-25T09:25:32;8.00;;;2.65;;
21721;SDS011;11023;48.274;7.794;2022-11-25T09:27:59;3.78;;;2.05;;
21721;SDS011;11023;48.274;7.794;2022-11-25T09:30:24;8.23;;;2.95;;
21721;SDS011;11023;48.274;7.794;2022-11-25T09:32:52;6.70;;;2.53;;
21721;SDS011;11023;48.274;7.794;2022-11-25T09:35:20;6.85;;;2.80;;
21721;SDS011;11023;48.274;7.794;2022-11-25T09:37:47;6.38;;;2.72;;
21721;SDS011;11023;48.274;7.794;2022-11-25T09:40:17;6.40;;;2.58;;
21721;SDS011;11023;48.274;7.794;2022-11-25T09:46:01;7.40;;;2.40;;
21721;SDS011;11023;48.274;7.794;2022-11-25T09:55:14;5.47;;;2.05;;
21721;SDS011;11023;48.274;7.794;2022-11-25T10:00:03;5.50;;;2.33;;
21721;SDS011;11023;48.274;7.794;2022-11-25T10:03:05;8.95;;;2.30;;
21721;SDS011;11023;48.274;7.794;2022-11-25T10:05:27;6.22;;;2.60;;
21721;SDS011;11023;48.274;7.794;2022-11-25T10:10:44;6.97;;;2.35;;
21721;SDS011;11023;48.274;7.794;2022-11-25T10:13:43;6.63;;;2.55;;
21721;SDS011;11023;48.274;7.794;2022-11-25T10:21:56;8.25;;;3.40;;
21721;SDS011;11023;48.274;7.794;2022-11-25T10:24:21;8.13;;;3.65;;
21721;SDS011;11023;48.274;7.794;2022-11-25T10:26:52;7.47;;;3.72;;
21721;SDS011;11023;48.274;7.794;2022-11-25T10:29:29;7.32;;;2.90;;
21721;SDS011;11023;48.274;7.794;2022-11-25T10:32:00;11.50;;;3.75;;
21721;SDS011;11023;48.274;7.794;2022-11-25T10:34:54;8.88;;;2.85;;
21721;SDS011;11023;48.274;7.794;2022-11-25T10:37:44;5.25;;;2.42;;
21721;SDS011;11023;48.274;7.794;2022-11-25T10:40:14;5.18;;;2.67;;
21721;SDS011;11023;48.274;7.794;2022-11-25T10:42:41;6.13;;;2.30;;
21721;SDS011;11023;48.274;7.794;2022-11-25T10:45:07;5.72;;;2.20;;
21721;SDS011;11023;48.274;7.794;2022-11-25T10:53:14;5.13;;;2.50;;
21721;SDS011;11023;48.274;7.794;2022-11-25T10:56:00;5.43;;;2.08;;
21721;SDS011;11023;48.274;7.794;2022-11-25T10:58:38;5.65;;;2.33;;
21721;SDS011;11023;48.274;7.794;2022-11-25T11:01:16;5.63;;;1.90;;
21721;SDS011;11023;48.274;7.794;2022-11-25T11:04:05;7.65;;;2.65;;
21721;SDS011;11023;48.274;7.794;2022-11-25T11:06:36;8.20;;;2.83;;
21721;SDS011;11023;48.274;7.794;2022-11-25T11:09:04;8.00;;;2.55;;
21721;SDS011;11023;48.274;7.794;2022-11-25T11:11:30;5.90;;;2.50;;
21721;SDS011;11023;48.274;7.794;2022-11-25T11:14:13;5.85;;;2.50;;
21721;SDS011;11023;48.274;7.794;2022-11-25T11:16:46;7.15;;;2.65;;
21721;SDS011;11023;48.274;7.794;2022-11-25T11:19:24;7.57;;;2.55;;
21721;SDS011;11023;48.274;7.794;2022-11-25T11:21:53;7.35;;;3.85;;
21721;SDS011;11023;48.274;7.794;2022-11-25T11:29:30;11.95;;;2.35;;
21721;SDS011;11023;48.274;7.794;2022-11-25T11:32:06;9.68;;;2.25;;
21721;SDS011;11023;48.274;7.794;2022-11-25T11:37:20;6.35;;;2.30;;
21721;SDS011;11023;48.274;7.794;2022-11-25T11:47:57;6.68;;;2.30;;
21721;SDS011;11023;48.274;7.794;2022-11-25T11:54:25;5.53;;;2.13;;
21721;SDS011;11023;48.274;7.794;2022-11-25T11:57:04;7.70;;;2.63;;
21721;SDS011;11023;48.274;7.794;2022-11-25T12:10:21;6.00;;;2.25;;
21721;SDS011;11023;48.274;7.794;2022-11-25T12:13:20;6.35;;;2.70;;
21721;SDS011;11023;48.274;7.794;2022-11-25T12:15:57;7.95;;;2.40;;
21721;SDS011;11023;48.274;7.794;2022-11-25T12:18:50;4.63;;;2.25;;
21721;SDS011;11023;48.274;7.794;2022-11-25T12:21:43;4.47;;;2.47;;
21721;SDS011;11023;48.274;7.794;2022-11-25T12:24:25;4.03;;;2.13;;
21721;SDS011;11023;48.274;7.794;2022-11-25T12:27:12;6.07;;;2.30;;
21721;SDS011;11023;48.274;7.794;2022-11-25T12:30:13;3.78;;;2.00;;
21721;SDS011;11023;48.274;7.794;2022-11-25T12:32:47;8.00;;;2.70;;
21721;SDS011;11023;48.274;7.794;2022-11-25T12:38:14;6.45;;;2.45;;
21721;SDS011;11023;48.274;7.794;2022-11-25T12:46:10;6.28;;;2.28;;
21721;SDS011;11023;48.274;7.794;2022-11-25T12:48:58;4.18;;;2.35;;
21721;SDS011;11023;48.274;7.794;2022-11-25T12:51:38;7.07;;;2.47;;
21721;SDS011;11023;48.274;7.794;2022-11-25T12:54:15;5.10;;;2.13;;
21721;SDS011;11023;48.274;7.794;2022-11-25T13:00:08;5.72;;;2.47;;
21721;SDS011;11023;48.274;7.794;2022-11-25T13:02:33;5.18;;;2.17;;
21721;SDS011;11023;48.274;7.794;2022-11-25T13:05:04;5.93;;;2.38;;
21721;SDS011;11023;48.274;7.794;2022-11-25T13:10:45;5.07;;;2.03;;
21721;SDS011;11023;48.274;7.794;2022-11-25T13:16:14;6.20;;;2.63;;
21721;SDS011;11023;48.274;7.794;2022-11-25T13:18:43;11.85;;;2.65;;
21721;SDS011;11023;48.274;7.794;2022-11-25T13:21:10;5.35;;;2.50;;
21721;SDS011;11023;48.274;7.794;2022-11-25T13:23:47;5.63;;;2.35;;
21721;SDS011;11023;48.274;7.794;2022-11-25T13:32:00;6.07;;;2.63;;
21721;SDS011;11023;48.274;7.794;2022-11-25T13:34:28;10.95;;;2.67;;
21721;SDS011;11023;48.274;7.794;2022-11-25T13:37:01;6.73;;;2.73;;
21721;SDS011;11023;48.274;7.794;2022-11-25T13:42:47;4.45;;;2.60;;
21721;SDS011;11023;48.274;7.794;2022-11-25T13:47:54;6.57;;;2.80;;
21721;SDS011;11023;48.274;7.794;2022-11-25T13:50:28;5.35;;;2.40;;
21721;SDS011;11023;48.274;7.794;2022-11-25T13:52:58;5.00;;;2.53;;
21721;SDS011;11023;48.274;7.794;2022-11-25T13:55:34;6.32;;;2.25;;
21721;SDS011;11023;48.274;7.794;2022-11-25T13:58:13;4.65;;;2.05;;
21721;SDS011;11023;48.274;7.794;2022-11-25T14:26:45;9.18;;;2.45;;
21721;SDS011;11023;48.274;7.794;2022-11-25T14:29:22;7.22;;;2.05;;
21721;SDS011;11023;48.274;7.794;2022-11-25T14:32:02;9.25;;;2.15;;
21721;SDS011;11023;48.274;7.794;2022-11-25T14:34:31;5.88;;;1.98;;
21721;SDS011;11023;48.274;7.794;2022-11-25T14:39:37;11.73;;;2.30;;
21721;SDS011;11023;48.274;7.794;2022-11-25T14:42:08;10.18;;;2.80;;
21721;SDS011;11023;48.274;7.794;2022-11-25T14:44:45;6.55;;;2.22;;
21721;SDS011;11023;48.274;7.794;2022-11-25T14:47:26;12.95;;;2.33;;
21721;SDS011;11023;48.274;7.794;2022-11-25T14:49:54;6.80;;;2.03;;
21721;SDS011;11023;48.274;7.794;2022-11-25T14:52:28;9.70;;;3.08;;
21721;SDS011;11023;48.274;7.794;2022-11-25T14:55:00;5.88;;;1.80;;
21721;SDS011;11023;48.274;7.794;2022-11-25T14:57:28;10.85;;;2.15;;
21721;SDS011;11023;48.274;7.794;2022-11-25T15:00:07;11.13;;;2.47;;
21721;SDS011;11023;48.274;7.794;2022-11-25T15:02:36;13.20;;;2.42;;
21721;SDS011;11023;48.274;7.794;2022-11-25T15:07:52;7.03;;;2.40;;
21721;SDS011;11023;48.274;7.794;2022-11-25T15:10:29;9.05;;;2.83;;
21721;SDS011;11023;48.274;7.794;2022-11-25T15:13:10;8.57;;;2.67;;
21721;SDS011;11023;48.274;7.794;2022-11-25T15:15:45;11.27;;;2.78;;
21721;SDS011;11023;48.274;7.794;2022-11-25T15:18:14;9.77;;;3.00;;
21721;SDS011;11023;48.274;7.794;2022-11-25T15:20:45;6.47;;;3.15;;
21721;SDS011;11023;48.274;7.794;2022-11-25T15:23:12;12.57;;;4.40;;
21721;SDS011;11023;48.274;7.794;2022-11-25T15:25:50;11.27;;;5.15;;
21721;SDS011;11023;48.274;7.794;2022-11-25T15:28:17;16.50;;;5.90;;
21721;SDS011;11023;48.274;7.794;2022-11-25T15:30:53;11.00;;;5.90;;
21721;SDS011;11023;48.274;7.794;2022-11-25T15:33:22;13.02;;;7.43;;
21721;SDS011;11023;48.274;7.794;2022-11-25T15:35:48;15.48;;;7.70;;
21721;SDS011;11023;48.274;7.794;2022-11-25T15:41:06;14.45;;;7.30;;
21721;SDS011;11023;48.274;7.794;2022-11-25T15:43:57;15.55;;;6.70;;
21721;SDS011;11023;48.274;7.794;2022-11-25T15:46:25;14.07;;;6.43;;
21721;SDS011;11023;48.274;7.794;2022-11-25T15:48:52;13.07;;;6.38;;
21721;SDS011;11023;48.274;7.794;2022-11-25T15:51:41;15.98;;;7.93;;
21721;SDS011;11023;48.274;7.794;2022-11-25T15:54:18;21.50;;;8.75;;
21721;SDS011;11023;48.274;7.794;2022-11-25T15:57:13;18.27;;;8.38;;
21721;SDS011;11023;48.274;7.794;2022-11-25T15:59:49;22.45;;;9.75;;
21721;SDS011;11023;48.274;7.794;2022-11-25T16:02:33;22.35;;;9.65;;
21721;SDS011;11023;48.274;7.794;2022-11-25T16:12:42;12.68;;;6.80;;
21721;SDS011;11023;48.274;7.794;2022-11-25T16:15:15;12.85;;;6.57;;
21721;SDS011;11023;48.274;7.794;2022-11-25T16:17:41;11.77;;;6.60;;
21721;SDS011;11023;48.274;7.794;2022-11-25T16:20:17;14.93;;;6.95;;
21721;SDS011;11023;48.274;7.794;2022-11-25T16:22:43;14.20;;;6.50;;
21721;SDS011;11023;48.274;7.794;2022-11-25T16:25:09;10.52;;;5.50;;
21721;SDS011;11023;48.274;7.794;2022-11-25T16:27:36;9.15;;;5.05;;
21721;SDS011;11023;48.274;7.794;2022-11-25T16:32:43;10.00;;;5.00;;
21721;SDS011;11023;48.274;7.794;2022-11-25T16:35:13;10.80;;;5.28;;
21721;SDS011;11023;48.274;7.794;2022-11-25T16:37:40;10.23;;;6.00;;
21721;SDS011;11023;48.274;7.794;2022-11-25T16:40:07;18.95;;;11.18;;
21721;SDS011;11023;48.274;7.794;2022-11-25T16:42:36;18.58;;;9.60;;
21721;SDS011;11023;48.274;7.794;2022-11-25T16:45:02;13.70;;;7.88;;
21721;SDS011;11023;48.274;7.794;2022-11-25T16:47:50;12.20;;;6.00;;
21721;SDS011;11023;48.274;7.794;2022-11-25T16:50:16;14.93;;;5.80;;
21721;SDS011;11023;48.274;7.794;2022-11-25T16:52:42;11.63;;;5.43;;
21721;SDS011;11023;48.274;7.794;2022-11-25T16:55:08;10.65;;;4.90;;
21721;SDS011;11023;48.274;7.794;2022-11-25T16:57:35;11.77;;;4.75;;
21721;SDS011;11023;48.274;7.794;2022-11-25T17:00:03;12.48;;;4.72;;
21721;SDS011;11023;48.274;7.794;2022-11-25T17:02:33;11.75;;;5.35;;
21721;SDS011;11023;48.274;7.794;2022-11-25T17:05:13;10.07;;;4.93;;
21721;SDS011;11023;48.274;7.794;2022-11-25T17:07:44;12.68;;;5.70;;
21721;SDS011;11023;48.274;7.794;2022-11-25T17:10:10;11.88;;;5.78;;
21721;SDS011;11023;48.274;7.794;2022-11-25T17:12:36;11.30;;;6.05;;
21721;SDS011;11023;48.274;7.794;2022-11-25T17:15:05;10.43;;;5.45;;
21721;SDS011;11023;48.274;7.794;2022-11-25T17:17:35;13.00;;;5.63;;
21721;SDS011;11023;48.274;7.794;2022-11-25T17:20:02;9.90;;;5.25;;
21721;SDS011;11023;48.274;7.794;2022-11-25T17:22:28;11.65;;;5.00;;
21721;SDS011;11023;48.274;7.794;2022-11-25T17:24:54;12.70;;;5.53;;
21721;SDS011;11023;48.274;7.794;2022-11-25T17:27:23;13.32;;;5.30;;
21721;SDS011;11023;48.274;7.794;2022-11-25T17:29:52;10.27;;;5.95;;
21721;SDS011;11023;48.274;7.794;2022-11-25T17:32:19;15.10;;;6.50;;
21721;SDS011;11023;48.274;7.794;2022-11-25T17:34:46;13.57;;;7.22;;
21721;SDS011;11023;48.274;7.794;2022-11-25T17:37:15;14.95;;;6.63;;
21721;SDS011;11023;48.274;7.794;2022-11-25T17:39:43;13.45;;;7.07;;
21721;SDS011;11023;48.274;7.794;2022-11-25T17:42:10;13.95;;;8.05;;
21721;SDS011;11023;48.274;7.794;2022-11-25T17:44:39;16.15;;;8.48;;
21721;SDS011;11023;48.274;7.794;2022-11-25T17:47:09;16.52;;;8.82;;
21721;SDS011;11023;48.274;7.794;2022-11-25T17:49:37;17.70;;;8.30;;
21721;SDS011;11023;48.274;7.794;2022-11-25T17:52:02;14.65;;;7.75;;
21721;SDS011;11023;48.274;7.794;2022-11-25T17:54:28;14.05;;;7.18;;
21721;SDS011;11023;48.274;7.794;2022-11-25T17:56:54;15.68;;;8.00;;